Orbital elements of FENGYUN 1C DEB
| Launched | 9 May 1999 |
| Flight ended | – |
| Launch site | Taiyuan Space Center, PRC |
| Owner | People's Republic of China |
| NORAD ID | 31919 |
| Date fetched |
Epoch osculation |
Inc. [°] |
Ecc. | RA asc node [hr] |
Arg Peri. [°] |
Mean anom [°] |
Mean motion [rev/day] |
Abs. mag |
| Date fetched |
Epoch osculation |
Inc. [°] |
Ecc. | RA asc node [hr] |
Arg Peri. [°] |
Mean anom [°] |
Mean motion [rev/day] |
Abs. mag |
| 2026 May 03 17:57 | 2026 Apr 28 05:08:41 | 99.1216 | 0.01023 | 18.3813 | 161.1727 | 15.2509 | 14.46204 | – |
| 2026 May 02 17:57 | 2026 Apr 28 05:08:41 | 99.1216 | 0.01023 | 18.3813 | 161.1727 | 15.2509 | 14.46204 | – |
| 2026 May 01 17:56 | 2026 Apr 28 05:08:41 | 99.1216 | 0.01023 | 18.3813 | 161.1727 | 15.2509 | 14.46204 | – |
| 2026 Apr 30 17:56 | 2026 Apr 28 05:08:41 | 99.1216 | 0.01023 | 18.3813 | 161.1727 | 15.2509 | 14.46204 | – |
| 2026 Apr 29 17:57 | 2026 Apr 24 04:50:59 | 99.1210 | 0.01021 | 18.0936 | 173.0442 | 15.2509 | 14.46204 | – |
| 2026 Apr 28 17:56 | 2026 Apr 24 04:50:59 | 99.1210 | 0.01021 | 18.0936 | 173.0442 | 15.2509 | 14.46204 | – |
| 2026 Apr 27 17:58 | 2026 Apr 24 04:50:59 | 99.1210 | 0.01021 | 18.0936 | 173.0442 | 15.2509 | 14.46204 | – |
| 2026 Apr 26 17:58 | 2026 Apr 24 04:50:59 | 99.1210 | 0.01021 | 18.0936 | 173.0442 | 15.2509 | 14.46204 | – |
| 2026 Apr 25 17:58 | 2026 Apr 24 04:50:59 | 99.1210 | 0.01021 | 18.0936 | 173.0442 | 15.2509 | 14.46204 | – |
| 2026 Apr 24 17:59 | 2026 Apr 24 04:50:59 | 99.1210 | 0.01021 | 18.0936 | 173.0442 | 15.2509 | 14.46204 | – |
| 2026 Apr 23 17:57 | 2026 Apr 18 16:55:05 | 99.1203 | 0.01018 | 17.6995 | 189.3495 | 15.2509 | 14.46204 | – |
| 2026 Apr 22 17:57 | 2026 Apr 18 16:55:05 | 99.1203 | 0.01018 | 17.6995 | 189.3495 | 15.2509 | 14.46204 | – |
| 2026 Apr 21 17:57 | 2026 Apr 18 16:55:05 | 99.1203 | 0.01018 | 17.6995 | 189.3495 | 15.2509 | 14.46204 | – |
| 2026 Apr 20 17:57 | 2026 Apr 18 16:55:05 | 99.1203 | 0.01018 | 17.6995 | 189.3495 | 15.2509 | 14.46204 | – |
| 2026 Apr 19 17:58 | 2026 Apr 18 16:55:05 | 99.1203 | 0.01018 | 17.6995 | 189.3495 | 15.2509 | 14.46204 | – |
| 2026 Apr 18 17:56 | 2026 Apr 13 04:50:09 | 99.1191 | 0.01016 | 17.3050 | 205.7168 | 15.2509 | 14.46204 | – |
| 2026 Apr 16 17:57 | 2026 Apr 13 04:50:09 | 99.1191 | 0.01016 | 17.3050 | 205.7168 | 15.2509 | 14.46204 | – |
| 2026 Apr 14 17:57 | 2026 Apr 13 04:50:09 | 99.1191 | 0.01016 | 17.3050 | 205.7168 | 15.2509 | 14.46204 | – |
| 2026 Apr 13 17:57 | 2026 Apr 13 04:50:09 | 99.1191 | 0.01016 | 17.3050 | 205.7168 | 15.2509 | 14.46204 | – |
| 2026 Apr 12 17:57 | 2026 Apr 07 04:21:31 | 99.1180 | 0.01013 | 16.8735 | 223.6533 | 15.2509 | 14.46204 | – |
| 2026 Apr 11 17:57 | 2026 Apr 07 04:21:31 | 99.1180 | 0.01013 | 16.8735 | 223.6533 | 15.2509 | 14.46204 | – |
| 2026 Apr 10 17:58 | 2026 Apr 07 04:21:31 | 99.1180 | 0.01013 | 16.8735 | 223.6533 | 15.2509 | 14.46204 | – |
| 2026 Apr 09 18:01 | 2026 Apr 07 04:21:31 | 99.1180 | 0.01013 | 16.8735 | 223.6533 | 15.2509 | 14.46204 | – |
| 2026 Apr 08 17:57 | 2026 Apr 07 04:21:31 | 99.1180 | 0.01013 | 16.8735 | 223.6533 | 15.2509 | 14.46204 | – |
| 2026 Apr 07 17:57 | 2026 Apr 02 04:48:28 | 99.1171 | 0.01011 | 16.5166 | 238.5389 | 15.2509 | 14.46204 | – |
| 2026 Apr 06 17:57 | 2026 Apr 02 04:48:28 | 99.1171 | 0.01011 | 16.5166 | 238.5389 | 15.2509 | 14.46204 | – |